Time;durP1;ratioP1;P1;durP2;ratioP2;P2;SDS_P1;SDS_P2;PMS_P1;PMS_P2;Temp;Humidity;BMP_temperature;BMP_pressure;BME280_temperature;BME280_humidity;BME280_pressure;Samples;Min_cycle;Max_cycle;Signal;HPM_P1;HPM_P2
2023/04/17 00:02:09;;;;;;;1.27;0.98;;;;;;;;;;5029230;28;20087;-74
2023/04/17 00:04:36;;;;;;;1.55;1.00;;;;;;;;;;5027531;28;20022;-74
2023/04/17 00:07:04;;;;;;;0.93;0.80;;;;;;;;;;5025493;28;20105;-74
2023/04/17 00:09:30;;;;;;;2.00;1.20;;;;;;;;;;5028514;28;20028;-74
2023/04/17 00:11:56;;;;;;;0.85;0.85;;;;;;;;;;5024568;28;20459;-74
2023/04/17 00:14:22;;;;;;;3.35;2.03;;;;;;;;;;5021042;28;20038;-74
2023/04/17 00:16:48;;;;;;;0.90;0.85;;;;;;;;;;5018623;28;20053;-74
2023/04/17 00:19:14;;;;;;;1.42;1.27;;;;;;;;;;5020996;28;21018;-74
2023/04/17 00:21:40;;;;;;;1.95;1.15;;;;;;;;;;5026617;28;20038;-74
2023/04/17 00:24:07;;;;;;;1.38;1.13;;;;;;;;;;5023141;28;20029;-74
2023/04/17 00:26:33;;;;;;;1.65;1.30;;;;;;;;;;5024277;28;20030;-74
2023/04/17 00:28:59;;;;;;;2.47;1.45;;;;;;;;;;5025950;28;20021;-74
2023/04/17 00:31:25;;;;;;;1.05;0.95;;;;;;;;;;5020295;28;20383;-74
2023/04/17 00:33:51;;;;;;;1.10;1.00;;;;;;;;;;5023263;28;20026;-75
2023/04/17 00:36:17;;;;;;;1.73;1.20;;;;;;;;;;5029029;28;20032;-75
2023/04/17 00:38:43;;;;;;;2.95;1.38;;;;;;;;;;5028523;28;20034;-74
2023/04/17 00:41:10;;;;;;;1.58;1.00;;;;;;;;;;5019179;28;20022;-74
2023/04/17 00:43:36;;;;;;;1.67;1.33;;;;;;;;;;5029269;28;20117;-75
2023/04/17 00:46:06;;;;;;;2.47;1.50;;;;;;;;;;5024570;28;20036;-74
2023/04/17 00:48:33;;;;;;;1.88;1.10;;;;;;;;;;5022185;28;20024;-74
2023/04/17 00:51:02;;;;;;;1.25;1.00;;;;;;;;;;5026256;28;20063;-74
2023/04/17 00:53:30;;;;;;;4.20;1.00;;;;;;;;;;5021104;28;20115;-74
2023/04/17 00:55:56;;;;;;;2.38;1.20;;;;;;;;;;5026018;28;20033;-74
2023/04/17 00:58:23;;;;;;;2.00;1.40;;;;;;;;;;5028368;28;20049;-74
2023/04/17 01:04:16;;;;;;;1.20;1.10;;;;;;;;;;4984223;28;20046;-75
2023/04/17 01:06:42;;;;;;;2.65;1.30;;;;;;;;;;5017493;28;20073;-74
2023/04/17 01:09:08;;;;;;;2.42;1.40;;;;;;;;;;5027805;28;20026;-74
2023/04/17 01:11:35;;;;;;;1.45;1.20;;;;;;;;;;5026172;28;20522;-74
2023/04/17 01:14:01;;;;;;;1.65;1.10;;;;;;;;;;5019662;28;20088;-74
2023/04/17 01:16:29;;;;;;;2.45;1.23;;;;;;;;;;5020543;28;20045;-74
2023/04/17 01:18:55;;;;;;;1.50;1.05;;;;;;;;;;5018493;28;20021;-74
2023/04/17 01:21:21;;;;;;;4.43;1.27;;;;;;;;;;5022960;28;20041;-74
2023/04/17 01:23:50;;;;;;;0.98;0.85;;;;;;;;;;5026412;28;20072;-74
2023/04/17 01:26:18;;;;;;;3.20;1.15;;;;;;;;;;5026374;28;20026;-74
2023/04/17 01:29:04;;;;;;;2.92;1.30;;;;;;;;;;5028305;28;20507;-74
2023/04/17 01:31:30;;;;;;;1.75;1.35;;;;;;;;;;5025322;28;20048;-74
2023/04/17 01:33:56;;;;;;;1.75;1.23;;;;;;;;;;5020995;28;20496;-74
2023/04/17 01:36:22;;;;;;;2.15;1.15;;;;;;;;;;5024020;28;20025;-74
2023/04/17 01:38:48;;;;;;;1.88;1.35;;;;;;;;;;5022552;28;20030;-74
2023/04/17 01:41:14;;;;;;;3.80;1.40;;;;;;;;;;5021555;28;20030;-75
2023/04/17 01:43:45;;;;;;;1.90;1.42;;;;;;;;;;5020248;28;20485;-74
2023/04/17 01:46:11;;;;;;;1.73;1.27;;;;;;;;;;5021226;28;20104;-75
2023/04/17 01:48:37;;;;;;;1.23;1.13;;;;;;;;;;5020650;28;20030;-74
2023/04/17 01:51:03;;;;;;;1.92;1.20;;;;;;;;;;5023504;28;20033;-74
2023/04/17 01:53:32;;;;;;;0.98;0.98;;;;;;;;;;5019614;28;20037;-74
2023/04/17 01:56:00;;;;;;;3.13;1.38;;;;;;;;;;5024130;28;20034;-74
2023/04/17 01:58:26;;;;;;;1.83;1.00;;;;;;;;;;5017394;28;20057;-74
2023/04/17 02:00:52;;;;;;;2.20;1.23;;;;;;;;;;5028248;28;20043;-74
2023/04/17 02:03:18;;;;;;;1.63;1.25;;;;;;;;;;5023046;28;20381;-74
2023/04/17 02:05:45;;;;;;;4.40;1.10;;;;;;;;;;5025031;28;20126;-74
2023/04/17 02:08:11;;;;;;;1.67;1.30;;;;;;;;;;5018409;28;20053;-74
2023/04/17 02:10:37;;;;;;;2.90;1.30;;;;;;;;;;5012066;28;20442;-74
2023/04/17 02:13:03;;;;;;;1.75;1.33;;;;;;;;;;5016021;28;20034;-74
2023/04/17 02:15:29;;;;;;;2.45;1.35;;;;;;;;;;5021725;28;20030;-74
2023/04/17 02:17:55;;;;;;;2.05;1.38;;;;;;;;;;5024375;28;20392;-74
2023/04/17 02:20:21;;;;;;;1.63;1.40;;;;;;;;;;5024588;28;20029;-74
2023/04/17 02:22:47;;;;;;;1.95;1.48;;;;;;;;;;5019870;28;20045;-74
2023/04/17 02:25:14;;;;;;;1.23;1.10;;;;;;;;;;5019238;28;20061;-74
2023/04/17 02:27:39;;;;;;;1.63;1.30;;;;;;;;;;5019788;28;20030;-74
2023/04/17 02:30:06;;;;;;;1.83;1.27;;;;;;;;;;5024718;28;20075;-75
2023/04/17 02:32:32;;;;;;;1.65;1.40;;;;;;;;;;5026296;28;20056;-75
2023/04/17 02:34:58;;;;;;;2.13;1.27;;;;;;;;;;5022128;28;20037;-75
2023/04/17 02:37:24;;;;;;;2.65;1.35;;;;;;;;;;5028244;28;20025;-74
2023/04/17 02:39:50;;;;;;;2.42;1.70;;;;;;;;;;5016044;28;20592;-75
2023/04/17 02:42:16;;;;;;;1.83;1.20;;;;;;;;;;5022456;28;20566;-75
2023/04/17 02:44:45;;;;;;;2.95;1.48;;;;;;;;;;5019879;28;20033;-74
2023/04/17 02:47:11;;;;;;;1.90;1.20;;;;;;;;;;5017406;28;20053;-75
2023/04/17 02:49:37;;;;;;;1.40;1.05;;;;;;;;;;5022173;28;20026;-75
2023/04/17 02:52:03;;;;;;;2.25;1.48;;;;;;;;;;5014348;28;20038;-74
2023/04/17 02:54:29;;;;;;;2.33;1.40;;;;;;;;;;5022706;28;20030;-74
2023/04/17 02:56:58;;;;;;;1.95;1.40;;;;;;;;;;5025532;28;20100;-75
2023/04/17 02:59:25;;;;;;;3.38;1.45;;;;;;;;;;5027041;28;20087;-74
2023/04/17 03:01:51;;;;;;;3.78;1.90;;;;;;;;;;5019925;28;20042;-75
2023/04/17 03:04:20;;;;;;;1.80;1.52;;;;;;;;;;5010554;28;20087;-74
2023/04/17 03:06:46;;;;;;;1.95;1.52;;;;;;;;;;5016648;28;20029;-75
2023/04/17 03:09:13;;;;;;;1.38;1.10;;;;;;;;;;5017044;28;20492;-74
2023/04/17 03:11:39;;;;;;;1.70;1.10;;;;;;;;;;5014686;28;20472;-74
2023/04/17 03:14:05;;;;;;;2.13;1.40;;;;;;;;;;5012880;28;20018;-74
2023/04/17 03:16:31;;;;;;;1.48;0.98;;;;;;;;;;5018310;28;20505;-74
2023/04/17 03:18:57;;;;;;;1.80;1.20;;;;;;;;;;5013678;28;20477;-73
2023/04/17 03:21:23;;;;;;;1.88;1.17;;;;;;;;;;5025183;28;20048;-74
2023/04/17 03:23:49;;;;;;;3.33;1.65;;;;;;;;;;5022176;28;20113;-74
2023/04/17 03:26:15;;;;;;;1.15;1.05;;;;;;;;;;5022288;28;20060;-75
2023/04/17 03:28:41;;;;;;;1.27;1.08;;;;;;;;;;5018264;28;20041;-74
2023/04/17 03:31:07;;;;;;;2.08;1.40;;;;;;;;;;5020393;28;20040;-76
2023/04/17 03:33:33;;;;;;;2.03;1.10;;;;;;;;;;5016256;28;20018;-74
2023/04/17 03:35:59;;;;;;;1.52;1.40;;;;;;;;;;5022512;28;20018;-76
2023/04/17 03:38:25;;;;;;;2.65;1.30;;;;;;;;;;5015825;28;20033;-76
2023/04/17 03:40:51;;;;;;;2.88;1.20;;;;;;;;;;5013716;28;20026;-76
2023/04/17 03:43:17;;;;;;;7.22;1.60;;;;;;;;;;5016357;28;20437;-75
2023/04/17 03:45:43;;;;;;;2.28;1.50;;;;;;;;;;5014151;28;20026;-75
2023/04/17 03:48:09;;;;;;;1.42;1.30;;;;;;;;;;5019971;28;20480;-75
2023/04/17 03:50:35;;;;;;;1.42;1.25;;;;;;;;;;5023651;28;20033;-76
2023/04/17 03:53:01;;;;;;;1.98;1.40;;;;;;;;;;5026864;28;20037;-75
2023/04/17 03:55:27;;;;;;;2.17;1.80;;;;;;;;;;5023787;28;20029;-76
2023/04/17 03:57:53;;;;;;;2.58;1.38;;;;;;;;;;5009950;28;20029;-75
2023/04/17 04:00:20;;;;;;;1.92;1.45;;;;;;;;;;5024466;28;20030;-75
2023/04/17 04:02:46;;;;;;;2.00;1.25;;;;;;;;;;5018413;28;20104;-76
2023/04/17 04:05:11;;;;;;;1.67;1.30;;;;;;;;;;5014443;28;20021;-76
2023/04/17 04:07:37;;;;;;;1.50;1.40;;;;;;;;;;5015956;28;20033;-76
2023/04/17 04:10:04;;;;;;;3.85;1.35;;;;;;;;;;5014425;28;20021;-76
2023/04/17 04:12:29;;;;;;;1.60;1.30;;;;;;;;;;5024566;28;20029;-76
2023/04/17 04:14:55;;;;;;;1.65;1.30;;;;;;;;;;5020601;28;20076;-75
2023/04/17 04:17:21;;;;;;;2.15;1.48;;;;;;;;;;5022723;28;20045;-75
2023/04/17 04:19:47;;;;;;;2.10;1.33;;;;;;;;;;5020265;28;20124;-75
2023/04/17 04:22:13;;;;;;;1.35;1.17;;;;;;;;;;5027314;28;20099;-75
2023/04/17 04:24:40;;;;;;;2.92;1.60;;;;;;;;;;5029427;28;20491;-75
2023/04/17 04:27:06;;;;;;;3.22;1.50;;;;;;;;;;5016301;28;20503;-75
2023/04/17 04:29:32;;;;;;;1.58;1.27;;;;;;;;;;5028971;28;20031;-75
2023/04/17 04:31:59;;;;;;;1.70;1.30;;;;;;;;;;5029844;28;20041;-76
2023/04/17 04:34:28;;;;;;;2.65;1.60;;;;;;;;;;5025972;28;20041;-76
2023/04/17 04:36:54;;;;;;;2.03;1.40;;;;;;;;;;5029828;28;20033;-76
2023/04/17 04:39:20;;;;;;;1.52;1.30;;;;;;;;;;5019483;28;20042;-76
2023/04/17 04:41:50;;;;;;;1.52;1.25;;;;;;;;;;5027705;28;20039;-76
2023/04/17 04:44:16;;;;;;;1.48;1.38;;;;;;;;;;5029576;28;20026;-75
2023/04/17 04:46:42;;;;;;;1.65;1.13;;;;;;;;;;5016335;28;20493;-75
2023/04/17 04:49:08;;;;;;;1.73;1.20;;;;;;;;;;5027319;28;20040;-75
2023/04/17 04:51:35;;;;;;;2.03;1.30;;;;;;;;;;5025942;28;20018;-75
2023/04/17 04:54:01;;;;;;;1.63;0.95;;;;;;;;;;5029309;28;20495;-75
2023/04/17 04:56:27;;;;;;;1.50;1.25;;;;;;;;;;5028266;28;20025;-75
2023/04/17 04:58:55;;;;;;;1.70;1.25;;;;;;;;;;5026701;28;20033;-75
2023/04/17 05:01:21;;;;;;;1.77;1.30;;;;;;;;;;5028574;28;20033;-75
2023/04/17 05:03:47;;;;;;;1.63;1.30;;;;;;;;;;5028543;28;20034;-76
2023/04/17 05:06:13;;;;;;;1.50;1.30;;;;;;;;;;5029550;28;20028;-75
2023/04/17 05:08:39;;;;;;;3.50;1.83;;;;;;;;;;5029755;28;20041;-75
2023/04/17 05:11:05;;;;;;;1.95;1.33;;;;;;;;;;5024716;28;20036;-76
2023/04/17 05:13:31;;;;;;;2.00;1.45;;;;;;;;;;5018454;28;20073;-75
2023/04/17 05:15:57;;;;;;;1.23;1.08;;;;;;;;;;5012974;28;20026;-75
2023/04/17 05:18:23;;;;;;;1.55;1.30;;;;;;;;;;5013963;28;20030;-75
2023/04/17 05:20:50;;;;;;;4.05;1.70;;;;;;;;;;5012578;28;20034;-75
2023/04/17 05:23:16;;;;;;;1.88;1.35;;;;;;;;;;5016733;28;20030;-75
2023/04/17 05:25:42;;;;;;;2.33;1.33;;;;;;;;;;5025321;28;20034;-75
2023/04/17 05:28:08;;;;;;;1.75;1.10;;;;;;;;;;5013208;28;20477;-75
2023/04/17 05:30:35;;;;;;;2.58;1.40;;;;;;;;;;5023769;28;20026;-76
2023/04/17 05:33:00;;;;;;;2.53;1.38;;;;;;;;;;5021198;28;20025;-76
2023/04/17 05:35:27;;;;;;;1.48;1.38;;;;;;;;;;5029893;28;20036;-75
2023/04/17 05:37:54;;;;;;;2.85;1.60;;;;;;;;;;5019099;28;20026;-76
2023/04/17 05:40:20;;;;;;;2.00;1.55;;;;;;;;;;5021622;28;20037;-76
2023/04/17 05:42:46;;;;;;;4.63;1.70;;;;;;;;;;5018156;28;20567;-75
2023/04/17 05:45:13;;;;;;;2.05;1.55;;;;;;;;;;5019814;28;20025;-76
2023/04/17 05:47:48;;;;;;;1.58;1.30;;;;;;;;;;5022692;28;20064;-76
2023/04/17 05:50:14;;;;;;;2.25;1.50;;;;;;;;;;5025576;28;20124;-76
2023/04/17 05:52:40;;;;;;;1.40;1.13;;;;;;;;;;5015958;28;20077;-77
2023/04/17 05:55:06;;;;;;;2.40;1.60;;;;;;;;;;5019724;28;20049;-76
2023/04/17 05:57:32;;;;;;;2.50;1.50;;;;;;;;;;5021657;28;20120;-76
2023/04/17 05:59:58;;;;;;;1.83;1.58;;;;;;;;;;5011254;28;20026;-76
2023/04/17 06:02:24;;;;;;;2.17;1.52;;;;;;;;;;5016794;28;20033;-76
2023/04/17 06:04:50;;;;;;;3.97;1.73;;;;;;;;;;5011311;28;20061;-76
2023/04/17 06:07:16;;;;;;;1.90;1.42;;;;;;;;;;5041069;28;20040;-76
2023/04/17 06:09:42;;;;;;;3.33;2.03;;;;;;;;;;5012342;28;20040;-76
2023/04/17 06:12:14;;;;;;;2.80;1.73;;;;;;;;;;5024526;28;20056;-77
2023/04/17 06:14:40;;;;;;;3.50;1.98;;;;;;;;;;5012371;28;20086;-78
2023/04/17 06:17:06;;;;;;;2.45;2.10;;;;;;;;;;5021442;28;20496;-76
2023/04/17 06:19:32;;;;;;;2.50;1.63;;;;;;;;;;5015015;28;20049;-76
2023/04/17 06:21:58;;;;;;;2.67;2.05;;;;;;;;;;5012972;28;20041;-77
2023/04/17 06:24:24;;;;;;;2.00;1.42;;;;;;;;;;5019819;28;20036;-76
2023/04/17 06:26:50;;;;;;;1.70;1.45;;;;;;;;;;5031917;28;20112;-76
2023/04/17 06:29:16;;;;;;;2.92;1.63;;;;;;;;;;5016206;28;20340;-77
2023/04/17 06:31:42;;;;;;;2.25;1.50;;;;;;;;;;5021933;28;20040;-76
2023/04/17 06:34:08;;;;;;;2.35;1.50;;;;;;;;;;5019477;28;20034;-76
2023/04/17 06:36:35;;;;;;;2.13;1.70;;;;;;;;;;5026363;28;20105;-76
2023/04/17 06:39:01;;;;;;;4.05;1.40;;;;;;;;;;5010848;28;20045;-76
2023/04/17 06:41:27;;;;;;;2.08;1.88;;;;;;;;;;5021008;28;20431;-76
2023/04/17 06:43:53;;;;;;;2.97;1.73;;;;;;;;;;5017497;28;20033;-76
2023/04/17 06:46:19;;;;;;;4.55;1.88;;;;;;;;;;5026017;28;20032;-77
2023/04/17 06:48:45;;;;;;;4.45;2.10;;;;;;;;;;5025058;28;20488;-75
2023/04/17 06:51:11;;;;;;;4.25;2.03;;;;;;;;;;5018167;28;20037;-76
2023/04/17 06:53:37;;;;;;;8.70;1.80;;;;;;;;;;5017379;28;20033;-75
2023/04/17 06:56:03;;;;;;;2.67;2.00;;;;;;;;;;5022386;28;20523;-76
2023/04/17 06:58:29;;;;;;;1.95;1.52;;;;;;;;;;5019006;28;20084;-75
2023/04/17 07:00:55;;;;;;;3.83;2.25;;;;;;;;;;5019919;28;20387;-75
2023/04/17 07:03:21;;;;;;;2.35;1.70;;;;;;;;;;5015458;28;20021;-76
2023/04/17 07:05:50;;;;;;;3.17;2.17;;;;;;;;;;5024591;28;20041;-76
2023/04/17 07:08:18;;;;;;;3.53;2.35;;;;;;;;;;5019768;28;20532;-76
2023/04/17 07:10:44;;;;;;;3.33;2.05;;;;;;;;;;5020583;28;20026;-76
2023/04/17 07:13:10;;;;;;;3.25;2.35;;;;;;;;;;5016909;28;20061;-75
2023/04/17 07:15:36;;;;;;;2.33;1.67;;;;;;;;;;5019480;28;20494;-77
2023/04/17 07:18:02;;;;;;;3.63;2.50;;;;;;;;;;5016121;28;20041;-76
2023/04/17 07:20:28;;;;;;;3.08;1.90;;;;;;;;;;5021896;28;20477;-76
2023/04/17 07:22:55;;;;;;;3.03;2.00;;;;;;;;;;5014983;28;20044;-81
2023/04/17 07:25:24;;;;;;;4.03;2.30;;;;;;;;;;5023857;28;20021;-81
2023/04/17 07:27:50;;;;;;;5.25;2.30;;;;;;;;;;5015567;28;20022;-85
2023/04/17 07:30:16;;;;;;;2.13;1.80;;;;;;;;;;5012264;28;20029;-80
2023/04/17 07:32:44;;;;;;;3.70;1.88;;;;;;;;;;5019681;28;20040;-80
2023/04/17 07:35:10;;;;;;;1.92;1.55;;;;;;;;;;5014458;28;20030;-80
2023/04/17 07:37:36;;;;;;;2.80;2.03;;;;;;;;;;5018457;28;20037;-73
2023/04/17 07:40:04;;;;;;;4.00;2.58;;;;;;;;;;5013003;28;20025;-73
2023/04/17 07:42:30;;;;;;;1.55;1.40;;;;;;;;;;5017954;28;20515;-74
2023/04/17 07:44:56;;;;;;;4.82;2.10;;;;;;;;;;5023326;28;20176;-73
2023/04/17 07:47:22;;;;;;;2.78;2.00;;;;;;;;;;5023108;28;20147;-73
2023/04/17 07:49:51;;;;;;;5.20;2.38;;;;;;;;;;5026014;28;20146;-74
2023/04/17 07:52:17;;;;;;;3.92;2.38;;;;;;;;;;5026236;28;20029;-74
2023/04/17 07:54:43;;;;;;;6.97;2.53;;;;;;;;;;5030002;28;20029;-72
2023/04/17 07:57:10;;;;;;;3.28;2.20;;;;;;;;;;5031624;28;20033;-72
2023/04/17 07:59:36;;;;;;;2.85;1.90;;;;;;;;;;5028516;28;20052;-71
2023/04/17 08:02:02;;;;;;;3.47;1.88;;;;;;;;;;5025116;28;20037;-72
2023/04/17 08:04:28;;;;;;;3.33;2.13;;;;;;;;;;5014583;28;20038;-72
2023/04/17 08:06:54;;;;;;;3.53;2.10;;;;;;;;;;5011387;28;20030;-71
2023/04/17 08:09:21;;;;;;;2.72;2.20;;;;;;;;;;5011630;28;20034;-71
2023/04/17 08:11:47;;;;;;;4.72;2.00;;;;;;;;;;5012536;28;20061;-72
2023/04/17 08:14:14;;;;;;;6.65;2.25;;;;;;;;;;5027807;28;20524;-71
2023/04/17 08:16:40;;;;;;;2.80;2.15;;;;;;;;;;5031347;28;20124;-72
2023/04/17 08:19:06;;;;;;;3.35;2.00;;;;;;;;;;5030979;28;20536;-73
2023/04/17 08:21:32;;;;;;;3.60;1.98;;;;;;;;;;5027830;28;20033;-72
2023/04/17 08:23:58;;;;;;;2.97;1.85;;;;;;;;;;5026279;28;20029;-72
2023/04/17 08:26:24;;;;;;;2.97;2.10;;;;;;;;;;5031219;28;20507;-73
2023/04/17 08:28:52;;;;;;;3.13;1.80;;;;;;;;;;5014201;28;20021;-72
2023/04/17 08:31:18;;;;;;;4.72;2.30;;;;;;;;;;5011310;28;20022;-72
2023/04/17 08:33:44;;;;;;;2.13;1.73;;;;;;;;;;5012201;28;20075;-72
2023/04/17 08:36:10;;;;;;;4.65;1.80;;;;;;;;;;5025701;28;20018;-72
2023/04/17 08:38:36;;;;;;;1.95;1.63;;;;;;;;;;5030641;28;20036;-72
2023/04/17 08:41:06;;;;;;;4.00;2.17;;;;;;;;;;5030622;28;20095;-73
2023/04/17 08:43:34;;;;;;;2.83;2.10;;;;;;;;;;5013779;28;20026;-72
2023/04/17 08:46:01;;;;;;;2.97;1.80;;;;;;;;;;5024008;28;20025;-72
2023/04/17 08:48:27;;;;;;;2.45;1.77;;;;;;;;;;5030687;28;20127;-72
2023/04/17 08:50:53;;;;;;;3.55;2.10;;;;;;;;;;5030431;28;20029;-72
2023/04/17 08:53:20;;;;;;;2.28;1.70;;;;;;;;;;5030747;28;20025;-72
2023/04/17 08:55:47;;;;;;;2.83;1.95;;;;;;;;;;5026413;28;20542;-72
2023/04/17 08:58:13;;;;;;;3.72;2.22;;;;;;;;;;5030395;28;20040;-72
2023/04/17 09:00:40;;;;;;;5.15;1.77;;;;;;;;;;5030594;28;20099;-72
2023/04/17 09:03:07;;;;;;;2.22;1.52;;;;;;;;;;5029407;28;20374;-72
2023/04/17 09:05:35;;;;;;;2.50;1.73;;;;;;;;;;5028076;28;20144;-72
2023/04/17 09:08:14;;;;;;;2.28;1.67;;;;;;;;;;5026594;28;20083;-71
2023/04/17 09:10:45;;;;;;;2.90;1.90;;;;;;;;;;5030431;28;20026;-72
2023/04/17 09:13:14;;;;;;;4.50;2.45;;;;;;;;;;5030172;28;20033;-72
2023/04/17 09:15:41;;;;;;;2.88;1.90;;;;;;;;;;5030284;28;20037;-72
2023/04/17 09:18:24;;;;;;;2.20;1.85;;;;;;;;;;5028957;28;20037;-73
2023/04/17 09:20:50;;;;;;;3.40;1.98;;;;;;;;;;5018988;28;20052;-71
2023/04/17 09:23:16;;;;;;;3.15;2.03;;;;;;;;;;5023395;28;20037;-73
2023/04/17 09:25:42;;;;;;;2.45;1.52;;;;;;;;;;5025265;28;20038;-73
2023/04/17 09:28:13;;;;;;;3.17;2.17;;;;;;;;;;5027754;28;20068;-73
2023/04/17 09:30:40;;;;;;;2.77;1.93;;;;;;;;;;5029929;28;20021;-73
2023/04/17 09:33:07;;;;;;;3.08;1.95;;;;;;;;;;5029653;28;20033;-73
2023/04/17 09:35:34;;;;;;;3.53;1.73;;;;;;;;;;5029504;28;20056;-73
2023/04/17 09:38:00;;;;;;;8.13;1.65;;;;;;;;;;5019098;28;20022;-73
2023/04/17 09:40:27;;;;;;;2.45;1.90;;;;;;;;;;5027932;28;20060;-73
2023/04/17 09:42:54;;;;;;;3.75;2.05;;;;;;;;;;5017738;28;20574;-73
2023/04/17 09:45:21;;;;;;;4.38;2.35;;;;;;;;;;5010106;28;20026;-73
2023/04/17 09:47:47;;;;;;;2.75;1.73;;;;;;;;;;5010665;28;20133;-73
2023/04/17 09:50:17;;;;;;;3.80;2.08;;;;;;;;;;5028028;28;20036;-73
2023/04/17 09:52:43;;;;;;;1.45;1.30;;;;;;;;;;5029504;28;20537;-72
2023/04/17 09:55:11;;;;;;;3.25;1.88;;;;;;;;;;5029601;28;20060;-73
2023/04/17 09:57:38;;;;;;;4.47;1.80;;;;;;;;;;5028551;28;20033;-74
2023/04/17 10:00:07;;;;;;;3.70;1.80;;;;;;;;;;5009998;28;20540;-73
2023/04/17 10:02:34;;;;;;;1.52;1.42;;;;;;;;;;5009251;28;20034;-73
2023/04/17 10:05:01;;;;;;;5.05;1.80;;;;;;;;;;5009404;28;20022;-72
2023/04/17 10:07:28;;;;;;;2.05;1.42;;;;;;;;;;5009655;28;20030;-73
2023/04/17 10:09:55;;;;;;;2.83;1.83;;;;;;;;;;5024381;28;20116;-73
2023/04/17 10:12:21;;;;;;;3.22;1.67;;;;;;;;;;5029271;28;20025;-73
2023/04/17 10:14:49;;;;;;;4.72;2.28;;;;;;;;;;5029053;28;20408;-73
2023/04/17 10:17:22;;;;;;;2.10;1.52;;;;;;;;;;5028098;28;20057;-74
2023/04/17 10:19:48;;;;;;;3.00;1.88;;;;;;;;;;5026361;28;20450;-73
2023/04/17 10:22:17;;;;;;;4.88;1.80;;;;;;;;;;5028539;28;20091;-72
2023/04/17 10:24:44;;;;;;;3.17;2.10;;;;;;;;;;5028863;28;20029;-73
2023/04/17 10:27:41;;;;;;;2.25;1.60;;;;;;;;;;5012682;28;20026;-73
2023/04/17 10:30:09;;;;;;;1.92;1.63;;;;;;;;;;5010878;28;20133;-73
2023/04/17 10:32:35;;;;;;;5.22;2.33;;;;;;;;;;5028356;28;20512;-73
2023/04/17 10:35:17;;;;;;;2.90;1.92;;;;;;;;;;5027949;28;20177;-73
2023/04/17 10:38:01;;;;;;;2.60;2.03;;;;;;;;;;5028594;28;20060;-73
2023/04/17 10:40:31;;;;;;;3.92;1.90;;;;;;;;;;5024602;28;20801;-73
2023/04/17 10:43:04;;;;;;;2.72;1.70;;;;;;;;;;5014322;28;20033;-73
2023/04/17 10:45:49;;;;;;;2.10;1.75;;;;;;;;;;5010272;28;20053;-73
2023/04/17 10:48:21;;;;;;;3.08;1.88;;;;;;;;;;5008396;28;20057;-73
2023/04/17 10:50:47;;;;;;;2.63;1.90;;;;;;;;;;5008825;28;20113;-73
2023/04/17 10:53:32;;;;;;;3.53;2.20;;;;;;;;;;5008496;28;20049;-73
2023/04/17 10:55:58;;;;;;;3.95;2.03;;;;;;;;;;5017493;28;20036;-73
2023/04/17 10:58:24;;;;;;;3.28;1.90;;;;;;;;;;5025551;28;20023;-73
2023/04/17 11:00:51;;;;;;;5.75;2.00;;;;;;;;;;5019771;28;20021;-73
2023/04/17 11:03:17;;;;;;;2.15;1.45;;;;;;;;;;5028015;28;20029;-73
2023/04/17 11:05:46;;;;;;;4.15;1.80;;;;;;;;;;5028191;28;20108;-73
2023/04/17 11:08:13;;;;;;;1.65;1.50;;;;;;;;;;5027914;28;20524;-74
2023/04/17 11:10:39;;;;;;;3.00;1.88;;;;;;;;;;5024743;28;20033;-73
2023/04/17 11:13:05;;;;;;;2.40;1.55;;;;;;;;;;5028229;28;20159;-73
2023/04/17 11:15:33;;;;;;;2.47;1.80;;;;;;;;;;5028212;28;20310;-72
2023/04/17 11:17:59;;;;;;;2.72;1.70;;;;;;;;;;5027722;28;20041;-73
2023/04/17 11:20:26;;;;;;;2.30;1.77;;;;;;;;;;5020014;28;20034;-73
2023/04/17 11:22:52;;;;;;;4.00;2.20;;;;;;;;;;5026921;28;20034;-73
2023/04/17 11:25:23;;;;;;;4.15;1.73;;;;;;;;;;5028224;28;20026;-73
2023/04/17 11:27:59;;;;;;;1.85;1.67;;;;;;;;;;5008510;28;20041;-73
2023/04/17 11:30:36;;;;;;;2.42;1.90;;;;;;;;;;5015488;28;20393;-73
2023/04/17 11:33:03;;;;;;;2.53;1.98;;;;;;;;;;5031115;28;20065;-73
2023/04/17 11:35:33;;;;;;;5.95;1.90;;;;;;;;;;5032078;28;20064;-73
2023/04/17 11:38:16;;;;;;;2.22;1.67;;;;;;;;;;5031870;28;20021;-73
2023/04/17 11:40:58;;;;;;;3.10;1.75;;;;;;;;;;5031992;28;20041;-73
2023/04/17 11:43:25;;;;;;;2.25;1.75;;;;;;;;;;5015392;28;20037;-73
2023/04/17 11:45:52;;;;;;;2.40;1.73;;;;;;;;;;5031674;28;20502;-73
2023/04/17 11:48:22;;;;;;;3.05;2.00;;;;;;;;;;5031897;28;20013;-73
2023/04/17 11:50:48;;;;;;;3.55;2.17;;;;;;;;;;5031882;28;20021;-73
2023/04/17 11:53:15;;;;;;;2.15;1.75;;;;;;;;;;5030582;28;20543;-73
2023/04/17 11:55:42;;;;;;;3.05;1.88;;;;;;;;;;5024748;28;20507;-73
2023/04/17 11:58:09;;;;;;;2.45;2.00;;;;;;;;;;5031763;28;20034;-73
2023/04/17 12:00:36;;;;;;;2.65;1.88;;;;;;;;;;5031571;28;20397;-73
2023/04/17 12:03:03;;;;;;;2.35;1.52;;;;;;;;;;5029581;28;20034;-73
2023/04/17 12:05:30;;;;;;;2.85;1.50;;;;;;;;;;5028687;28;20021;-73
2023/04/17 12:08:03;;;;;;;2.22;1.90;;;;;;;;;;5027614;28;20078;-73
2023/04/17 12:10:39;;;;;;;1.92;1.70;;;;;;;;;;5031691;28;20032;-74
2023/04/17 12:13:05;;;;;;;3.50;1.88;;;;;;;;;;5031239;28;20052;-73
2023/04/17 12:15:31;;;;;;;3.33;1.50;;;;;;;;;;5031255;28;20026;-73
2023/04/17 12:17:58;;;;;;;2.75;1.83;;;;;;;;;;5027771;28;20076;-73
2023/04/17 12:20:23;;;;;;;3.40;2.20;;;;;;;;;;5031220;28;20457;-73
2023/04/17 12:22:49;;;;;;;3.92;2.10;;;;;;;;;;5025417;28;20041;-74
2023/04/17 12:25:15;;;;;;;2.28;1.60;;;;;;;;;;5030911;28;21032;-73
2023/04/17 12:27:41;;;;;;;2.17;1.67;;;;;;;;;;5025692;28;20030;-73
2023/04/17 12:30:07;;;;;;;3.95;2.08;;;;;;;;;;5029227;28;20033;-73
2023/04/17 12:32:33;;;;;;;2.35;1.80;;;;;;;;;;5030637;28;20035;-73
2023/04/17 12:35:00;;;;;;;2.42;1.75;;;;;;;;;;5030847;28;20029;-73
2023/04/17 12:37:26;;;;;;;2.15;1.67;;;;;;;;;;5031125;28;20025;-73
2023/04/17 12:39:51;;;;;;;1.95;1.67;;;;;;;;;;5028464;28;20037;-72
2023/04/17 12:42:17;;;;;;;8.40;2.33;;;;;;;;;;5023789;28;20022;-73
2023/04/17 12:44:43;;;;;;;3.08;1.73;;;;;;;;;;5010956;28;20056;-73
2023/04/17 12:47:09;;;;;;;3.08;1.58;;;;;;;;;;5010768;28;20037;-73
2023/04/17 12:49:35;;;;;;;2.10;1.58;;;;;;;;;;5014961;28;20121;-73
2023/04/17 12:52:01;;;;;;;2.45;1.83;;;;;;;;;;5030733;28;20209;-73
2023/04/17 12:54:27;;;;;;;1.58;1.35;;;;;;;;;;5030734;28;20048;-73
2023/04/17 12:56:53;;;;;;;2.88;1.75;;;;;;;;;;5027980;28;20017;-73
2023/04/17 12:59:19;;;;;;;3.28;2.10;;;;;;;;;;5019447;28;20021;-80
2023/04/17 13:01:45;;;;;;;2.30;1.77;;;;;;;;;;5013859;28;20050;-77
2023/04/17 13:04:11;;;;;;;2.80;2.20;;;;;;;;;;5012581;28;20034;-86
2023/04/17 13:06:37;;;;;;;2.45;1.50;;;;;;;;;;5024503;28;20531;-80
2023/04/17 13:09:03;;;;;;;2.35;1.80;;;;;;;;;;5027943;28;20025;-82
2023/04/17 13:11:29;;;;;;;2.38;1.70;;;;;;;;;;5026615;28;20485;-81
2023/04/17 13:13:55;;;;;;;3.17;2.05;;;;;;;;;;5015393;28;20030;-80
2023/04/17 13:16:21;;;;;;;2.28;1.60;;;;;;;;;;5025381;28;20049;-80
2023/04/17 13:18:47;;;;;;;3.30;2.30;;;;;;;;;;5027159;28;20216;-79
2023/04/17 13:21:13;;;;;;;2.42;1.60;;;;;;;;;;5024926;28;20041;-82
2023/04/17 13:23:39;;;;;;;3.50;1.75;;;;;;;;;;5029593;28;20029;-80
2023/04/17 13:26:05;;;;;;;1.95;1.80;;;;;;;;;;5018538;28;20022;-78
2023/04/17 13:28:31;;;;;;;2.53;2.00;;;;;;;;;;5025980;28;20029;-80
2023/04/17 13:30:57;;;;;;;3.42;2.10;;;;;;;;;;5020799;28;20034;-80
2023/04/17 13:33:23;;;;;;;3.05;1.88;;;;;;;;;;5012493;28;20049;-82
2023/04/17 13:35:52;;;;;;;5.95;3.30;;;;;;;;;;5015235;28;20034;-81
2023/04/17 13:38:17;;;;;;;4.38;2.30;;;;;;;;;;5027532;28;20366;-84
2023/04/17 13:40:43;;;;;;;6.00;2.42;;;;;;;;;;5011028;28;20036;-79
2023/04/17 13:43:12;;;;;;;7.32;3.45;;;;;;;;;;5026519;28;20040;-78
2023/04/17 13:45:41;;;;;;;3.88;2.00;;;;;;;;;;5020938;28;20108;-80
2023/04/17 13:48:07;;;;;;;5.05;2.40;;;;;;;;;;5021475;28;20529;-78
2023/04/17 13:50:33;;;;;;;6.35;2.80;;;;;;;;;;5016759;28;20026;-78
2023/04/17 13:53:00;;;;;;;3.30;2.15;;;;;;;;;;5017200;28;20435;-79
2023/04/17 13:55:26;;;;;;;8.05;2.65;;;;;;;;;;5026738;28;20400;-78
2023/04/17 13:57:53;;;;;;;3.78;2.10;;;;;;;;;;5014327;28;20022;-80
2023/04/17 14:00:20;;;;;;;4.13;2.13;;;;;;;;;;5014595;28;20034;-80
2023/04/17 14:02:46;;;;;;;2.58;1.90;;;;;;;;;;5017365;28;20330;-78
2023/04/17 14:05:12;;;;;;;3.53;2.13;;;;;;;;;;5017045;28;21366;-78
2023/04/17 14:07:38;;;;;;;2.25;1.80;;;;;;;;;;5021751;28;20029;-78
2023/04/17 14:10:04;;;;;;;3.25;1.77;;;;;;;;;;5019087;28;20140;-78
2023/04/17 14:12:30;;;;;;;2.72;1.63;;;;;;;;;;5020042;28;20037;-79
2023/04/17 14:14:56;;;;;;;4.88;2.35;;;;;;;;;;5018158;28;20331;-79
2023/04/17 14:17:22;;;;;;;3.03;1.92;;;;;;;;;;5025216;28;20049;-79
2023/04/17 14:19:48;;;;;;;4.22;2.08;;;;;;;;;;5020395;28;20534;-85
2023/04/17 14:22:14;;;;;;;3.10;1.88;;;;;;;;;;5021462;28;20480;-79
2023/04/17 14:24:43;;;;;;;4.20;1.90;;;;;;;;;;5021322;28;20037;-76
2023/04/17 14:27:09;;;;;;;4.55;2.17;;;;;;;;;;5016370;28;20033;-75
2023/04/17 14:29:35;;;;;;;4.93;2.33;;;;;;;;;;5015903;28;20029;-76
2023/04/17 14:32:01;;;;;;;2.92;2.22;;;;;;;;;;5012377;28;20017;-78
2023/04/17 14:34:27;;;;;;;6.65;2.22;;;;;;;;;;5013093;28;20026;-77
2023/04/17 14:36:53;;;;;;;5.03;2.85;;;;;;;;;;5014167;28;20059;-77
2023/04/17 14:39:19;;;;;;;3.63;2.00;;;;;;;;;;5012667;28;20025;-76
2023/04/17 14:41:45;;;;;;;2.13;1.67;;;;;;;;;;5017003;28;20032;-76
2023/04/17 14:44:11;;;;;;;3.28;2.25;;;;;;;;;;5017355;28;20029;-73
2023/04/17 14:46:37;;;;;;;3.78;2.20;;;;;;;;;;5018536;28;20029;-74